CMB weather

Bandaranaike International Colombo Airport
Colombo, Western Province, Sri Lanka

Public forecast

Using degrees Celsius for public forecast. Weather courtesy of forecast.io.

METAR (pilot weather report)

Retrieved 2019/03/20 23:10 UTC (27 minutes ago):

VCBI 202310Z 10003KT 070V140 8000 FEW018 26/23 Q1009 NOSIG

TAF (pilot weather forecast)

Retrieved 2019/03/20 18:00 UTC (6 hours ago):

TAF VCBI 201700Z 2018/2124 VRB06KT 9999 SCT018 TX32/2107Z TN25/2100Z BECMG 2104/2106 27010KT BECMG 2116/2118 VRB06KT